createdAt,value
2023-03-16T00:00:01.687Z,11.35
2023-03-16T00:04:26.022Z,11.32
2023-03-16T00:08:48.128Z,11.05
2023-03-16T00:13:10.202Z,11.13
2023-03-16T00:17:32.413Z,11.02
2023-03-16T00:21:54.383Z,10.43
2023-03-16T00:26:16.490Z,11.45
2023-03-16T00:30:38.505Z,11.18
2023-03-16T00:35:02.448Z,11.35
2023-03-16T00:39:25.355Z,10.30
2023-03-16T00:43:49.095Z,12.02
2023-03-16T00:48:11.596Z,11.50
2023-03-16T00:52:35.499Z,12.18
2023-03-16T00:56:57.637Z,12.40
2023-03-16T01:01:21.109Z,11.27
2023-03-16T01:05:43.571Z,11.35
2023-03-16T01:10:06.717Z,11.98
2023-03-16T01:14:28.580Z,11.25
2023-03-16T01:18:52.919Z,11.10
2023-03-16T01:23:14.776Z,11.90
2023-03-16T01:27:37.074Z,10.65
2023-03-16T01:32:00.643Z,12.10
2023-03-16T01:36:22.876Z,11.13
2023-03-16T01:40:54.320Z,10.25
2023-03-16T01:46:03.081Z,11.32
2023-03-16T01:50:27.952Z,9.32
2023-03-16T01:54:58.600Z,9.68
2023-03-16T01:59:25.132Z,10.15
2023-03-16T02:03:47.198Z,9.63
2023-03-16T02:08:18.860Z,9.55
2023-03-16T02:12:41.278Z,10.00
2023-03-16T02:17:03.718Z,10.27
2023-03-16T02:21:40.420Z,10.13
2023-03-16T02:26:31.374Z,10.23
2023-03-16T02:30:54.304Z,11.10
2023-03-16T02:35:16.340Z,8.98
2023-03-16T02:39:38.499Z,8.85
2023-03-16T02:44:36.301Z,8.20
2023-03-16T02:49:20.063Z,8.63
2023-03-16T02:53:42.478Z,8.98
2023-03-16T02:58:05.037Z,9.13
2023-03-16T03:02:27.177Z,9.65
2023-03-16T03:06:49.718Z,9.43
2023-03-16T03:11:12.141Z,9.93
2023-03-16T03:15:35.545Z,9.80
2023-03-16T03:20:13.782Z,9.82
2023-03-16T03:24:35.949Z,10.27
2023-03-16T03:28:58.022Z,9.70
2023-03-16T03:33:20.156Z,10.15
2023-03-16T03:37:44.415Z,10.15
2023-03-16T03:42:08.079Z,10.98
2023-03-16T03:46:30.490Z,11.55
2023-03-16T03:50:52.718Z,9.70
2023-03-16T03:55:35.019Z,8.60
2023-03-16T03:59:57.476Z,8.40
2023-03-16T04:04:34.959Z,8.43
2023-03-16T04:08:57.398Z,8.40
2023-03-16T04:13:22.198Z,8.27
2023-03-16T04:17:44.696Z,7.75
2023-03-16T04:22:07.961Z,7.93
2023-03-16T04:26:31.618Z,7.90
2023-03-16T04:30:54.838Z,7.30
2023-03-16T04:35:28.797Z,8.38
2023-03-16T04:39:52.555Z,7.82
2023-03-16T04:44:14.968Z,7.13
2023-03-16T04:48:37.899Z,8.07
2023-03-16T04:53:00.920Z,8.50
2023-03-16T04:57:24.979Z,7.97
2023-03-16T05:01:49.538Z,7.05
2023-03-16T05:06:13.076Z,7.60
2023-03-16T05:10:36.849Z,8.02
2023-03-16T05:14:59.215Z,7.93
2023-03-16T05:19:47.178Z,8.65
2023-03-16T05:24:12.423Z,7.15
2023-03-16T05:28:35.176Z,7.20
2023-03-16T05:33:03.212Z,7.13
2023-03-16T05:37:25.260Z,6.90
2023-03-16T05:41:47.692Z,11.93
2023-03-16T05:46:09.924Z,9.85
2023-03-16T05:50:32.826Z,9.52
2023-03-16T05:54:54.818Z,10.68
2023-03-16T05:59:18.652Z,10.27
2023-03-16T06:03:49.183Z,7.55
2023-03-16T06:08:16.281Z,5.88
2023-03-16T06:12:42.429Z,5.28
2023-03-16T06:17:05.061Z,4.25
2023-03-16T06:21:27.925Z,5.57
2023-03-16T06:25:56.428Z,3.92
2023-03-16T06:30:21.608Z,3.33
2023-03-16T06:34:43.774Z,4.30
2023-03-16T06:39:09.108Z,4.07
2023-03-16T06:43:37.024Z,3.80
2023-03-16T06:47:58.929Z,3.78
2023-03-16T06:52:22.667Z,3.50
2023-03-16T06:56:46.387Z,3.55
2023-03-16T07:01:08.981Z,3.40
2023-03-16T07:05:31.712Z,2.80
2023-03-16T07:09:54.847Z,3.47
2023-03-16T07:14:17.900Z,3.35
2023-03-16T07:18:40.682Z,4.18
2023-03-16T07:23:05.499Z,2.95
2023-03-16T07:27:30.102Z,2.60
2023-03-16T07:31:55.710Z,2.70
2023-03-16T07:36:24.218Z,2.30
2023-03-16T07:40:54.446Z,2.70
2023-03-16T07:45:18.257Z,2.08
2023-03-16T07:49:42.408Z,2.17
2023-03-16T07:54:04.558Z,2.40
2023-03-16T07:58:29.777Z,2.67
2023-03-16T08:02:52.832Z,2.60
2023-03-16T08:07:16.054Z,1.98
2023-03-16T08:11:57.131Z,1.90
2023-03-16T08:16:21.943Z,1.80
2023-03-16T08:20:45.020Z,2.35
2023-03-16T08:25:10.895Z,2.15
2023-03-16T08:29:37.963Z,1.75
2023-03-16T08:34:03.851Z,2.22
2023-03-16T08:38:28.421Z,1.80
2023-03-16T08:42:55.907Z,1.83
2023-03-16T08:47:18.192Z,2.30
2023-03-16T08:51:40.776Z,2.13
2023-03-16T08:56:09.830Z,2.22
2023-03-16T09:00:31.977Z,2.53
2023-03-16T09:04:54.311Z,2.42
2023-03-16T09:09:16.587Z,2.30
2023-03-16T09:13:39.695Z,2.30
2023-03-16T09:18:03.897Z,2.38
2023-03-16T09:22:26.071Z,2.60
2023-03-16T09:26:48.094Z,2.22
2023-03-16T09:31:17.124Z,2.45
2023-03-16T09:35:39.256Z,2.70
2023-03-16T09:40:10.133Z,1.67
2023-03-16T09:45:01.843Z,2.25
2023-03-16T09:49:28.731Z,1.98
2023-03-16T09:53:56.756Z,1.90
2023-03-16T09:58:21.807Z,1.98
2023-03-16T10:03:11.098Z,2.00
2023-03-16T10:08:05.079Z,2.05
2023-03-16T10:12:33.478Z,2.05
2023-03-16T10:17:24.097Z,2.08
2023-03-16T10:21:47.176Z,1.80
2023-03-16T10:26:34.217Z,2.08
2023-03-16T10:31:00.935Z,1.73
2023-03-16T10:35:43.176Z,1.70
2023-03-16T10:40:12.961Z,1.95
2023-03-16T10:44:40.698Z,1.80
2023-03-16T10:49:02.550Z,2.42
2023-03-16T10:53:32.963Z,1.63
2023-03-16T10:57:56.744Z,1.50
2023-03-16T11:02:30.623Z,2.55
2023-03-16T11:06:56.856Z,1.70
2023-03-16T11:11:29.772Z,2.13
2023-03-16T11:16:02.826Z,2.20
2023-03-16T11:20:28.912Z,1.90
2023-03-16T11:25:28.879Z,1.40
2023-03-16T11:30:22.304Z,1.60
2023-03-16T11:34:45.460Z,1.65
2023-03-16T11:39:14.172Z,2.00
2023-03-16T11:44:02.547Z,1.85
2023-03-16T11:49:00.629Z,1.60
2023-03-16T11:53:46.157Z,2.00
2023-03-16T11:58:45.282Z,1.92
2023-03-16T12:03:50.442Z,1.70
2023-03-16T12:08:35.383Z,1.48
2023-03-16T12:13:30.954Z,1.40
2023-03-16T12:18:22.016Z,1.48
2023-03-16T12:22:59.795Z,1.42
2023-03-16T12:27:37.998Z,2.28
2023-03-16T12:32:21.670Z,2.17
2023-03-16T12:37:42.454Z,1.60
2023-03-16T12:42:49.713Z,2.40
2023-03-16T12:47:27.411Z,2.90
2023-03-16T12:52:13.244Z,3.03
2023-03-16T12:56:44.882Z,2.80
2023-03-16T13:01:11.685Z,2.90
2023-03-16T13:05:36.297Z,2.88
2023-03-16T13:10:09.117Z,2.75
2023-03-16T13:14:44.921Z,3.30
2023-03-16T13:19:30.636Z,2.72
2023-03-16T13:24:01.508Z,3.03
2023-03-16T13:28:38.968Z,2.72
2023-03-16T13:33:17.787Z,2.55
2023-03-16T13:37:42.756Z,2.95
2023-03-16T13:42:20.594Z,2.95
2023-03-16T13:46:42.556Z,2.47
2023-03-16T13:51:04.782Z,3.05
2023-03-16T13:55:38.012Z,2.70
2023-03-16T14:00:25.093Z,2.45
2023-03-16T14:04:48.207Z,1.88
2023-03-16T14:09:21.879Z,2.58
2023-03-16T14:13:50.239Z,2.85
2023-03-16T14:18:22.583Z,2.72
2023-03-16T14:22:44.600Z,2.75
2023-03-16T14:27:52.546Z,2.78
2023-03-16T14:32:33.726Z,2.63
2023-03-16T14:37:10.242Z,2.35
2023-03-16T14:41:33.386Z,3.00
2023-03-16T14:45:55.817Z,3.00
2023-03-16T14:50:25.422Z,2.08
2023-03-16T14:54:48.406Z,2.67
2023-03-16T14:59:10.645Z,2.70
2023-03-16T15:03:36.422Z,3.22
2023-03-16T15:07:58.714Z,3.05
2023-03-16T15:12:22.764Z,3.00
2023-03-16T15:16:44.922Z,2.60
2023-03-16T15:21:25.122Z,2.72
2023-03-16T15:25:49.906Z,2.47
2023-03-16T15:30:27.572Z,2.60
2023-03-16T15:34:50.053Z,2.83
2023-03-16T15:39:25.560Z,2.90
2023-03-16T15:43:47.776Z,2.45
2023-03-16T15:48:11.900Z,2.75
2023-03-16T15:52:38.062Z,2.53
2023-03-16T15:57:00.324Z,2.05
2023-03-16T16:01:25.979Z,2.80
2023-03-16T16:05:48.935Z,3.22
2023-03-16T16:10:14.674Z,2.50
2023-03-16T16:14:37.096Z,2.75
2023-03-16T16:18:59.273Z,2.90
2023-03-16T16:23:21.327Z,2.90
2023-03-16T16:27:44.012Z,2.50
2023-03-16T16:32:25.895Z,2.42
2023-03-16T16:36:49.299Z,2.65
2023-03-16T16:41:21.834Z,3.20
2023-03-16T16:45:43.938Z,3.15
2023-03-16T16:50:20.976Z,3.60
2023-03-16T16:54:43.457Z,3.90
2023-03-16T16:59:18.531Z,3.45
2023-03-16T17:03:41.425Z,3.53
2023-03-16T17:08:04.617Z,3.50
2023-03-16T17:12:28.953Z,3.85
2023-03-16T17:16:52.012Z,4.18
2023-03-16T17:21:21.040Z,4.55
2023-03-16T17:25:43.617Z,4.20
2023-03-16T17:30:32.378Z,4.15
2023-03-16T17:34:54.376Z,4.82
2023-03-16T17:39:29.267Z,5.03
2023-03-16T17:43:54.750Z,4.15
2023-03-16T17:48:24.285Z,4.40
2023-03-16T17:52:48.155Z,3.95
2023-03-16T17:57:24.640Z,4.55
2023-03-16T18:01:48.124Z,4.53
2023-03-16T18:06:24.141Z,4.93
2023-03-16T18:10:47.812Z,4.38
2023-03-16T18:15:18.510Z,4.32
2023-03-16T18:19:40.382Z,4.70
2023-03-16T18:24:02.705Z,4.97
2023-03-16T18:28:24.657Z,4.20
2023-03-16T18:32:46.756Z,4.60
2023-03-16T18:37:21.968Z,4.65
2023-03-16T18:41:44.884Z,4.95
2023-03-16T18:46:37.444Z,4.13
2023-03-16T18:51:00.443Z,4.47
2023-03-16T18:55:25.544Z,4.20
2023-03-16T18:59:48.565Z,4.85
2023-03-16T19:04:22.233Z,4.10
2023-03-16T19:08:45.481Z,4.15
2023-03-16T19:13:21.319Z,4.07
2023-03-16T19:17:54.889Z,3.10
2023-03-16T19:22:21.582Z,3.72
2023-03-16T19:26:43.997Z,4.05
2023-03-16T19:31:27.080Z,4.47
2023-03-16T19:35:52.076Z,4.10
2023-03-16T19:40:23.278Z,4.13
2023-03-16T19:44:50.527Z,4.43
2023-03-16T19:49:22.021Z,4.07
2023-03-16T19:53:44.930Z,4.13
2023-03-16T19:58:07.863Z,5.13
2023-03-16T20:02:40.898Z,4.10
2023-03-16T20:07:07.442Z,4.10
2023-03-16T20:11:32.379Z,4.15
2023-03-16T20:15:54.786Z,4.13
2023-03-16T20:20:30.020Z,3.90
2023-03-16T20:24:54.685Z,3.92
2023-03-16T20:29:31.597Z,3.75
2023-03-16T20:33:54.780Z,3.90
2023-03-16T20:38:17.939Z,3.85
2023-03-16T20:42:40.880Z,3.63
2023-03-16T20:47:02.862Z,4.28
2023-03-16T20:51:24.860Z,3.42
2023-03-16T20:55:47.897Z,4.22
2023-03-16T21:00:35.383Z,3.58
2023-03-16T21:05:00.729Z,3.55
2023-03-16T21:09:23.225Z,3.38
2023-03-16T21:13:45.438Z,3.60
2023-03-16T21:18:16.697Z,3.40
2023-03-16T21:22:39.118Z,3.60
2023-03-16T21:27:02.247Z,3.63
2023-03-16T21:31:26.530Z,3.35
2023-03-16T21:35:49.226Z,3.25
2023-03-16T21:40:21.042Z,3.40
2023-03-16T21:44:43.459Z,2.80
2023-03-16T21:49:10.525Z,3.20
2023-03-16T21:53:33.658Z,3.03
2023-03-16T21:57:57.685Z,3.35
2023-03-16T22:02:24.610Z,3.03
2023-03-16T22:06:46.815Z,2.85
2023-03-16T22:11:18.296Z,3.22
2023-03-16T22:15:42.815Z,3.78
2023-03-16T22:20:19.579Z,3.13
2023-03-16T22:24:42.074Z,3.20
2023-03-16T22:29:20.584Z,2.67
2023-03-16T22:33:43.876Z,3.60
2023-03-16T22:38:10.018Z,2.53
2023-03-16T22:42:39.490Z,2.92
2023-03-16T22:47:01.600Z,2.28
2023-03-16T22:51:32.939Z,2.40
2023-03-16T22:55:56.839Z,3.13
2023-03-16T23:00:21.620Z,2.55
2023-03-16T23:04:44.803Z,3.00
2023-03-16T23:09:06.880Z,3.03
2023-03-16T23:13:29.161Z,2.50
2023-03-16T23:17:52.330Z,2.70
2023-03-16T23:22:14.650Z,3.05
2023-03-16T23:26:38.123Z,2.85
2023-03-16T23:31:00.097Z,3.17
2023-03-16T23:35:28.998Z,2.67
2023-03-16T23:39:50.950Z,3.03
2023-03-16T23:44:23.622Z,3.35
2023-03-16T23:48:46.484Z,3.05
2023-03-16T23:53:17.758Z,2.92
2023-03-16T23:57:40.103Z,3.58
